地図

経路データ

SID SEASON NUMBER BASIN SUBBASIN NAME ISO_TIME NATURE LAT LON WMO_WIND WMO_PRES WMO_AGENCY TRACK_TYPE DIST2LAND LANDFALL IFLAG USA_AGENCY USA_ATCF_ID USA_LAT USA_LON USA_RECORD USA_STATUS USA_WIND USA_PRES USA_SSHS USA_R34_NE USA_R34_SE USA_R34_SW USA_R34_NW USA_R50_NE USA_R50_SE USA_R50_SW USA_R50_NW USA_R64_NE USA_R64_SE USA_R64_SW USA_R64_NW USA_POCI USA_ROCI USA_RMW USA_EYE TOKYO_LAT TOKYO_LON TOKYO_GRADE TOKYO_WIND TOKYO_PRES TOKYO_R50_DIR TOKYO_R50_LONG TOKYO_R50_SHORT TOKYO_R30_DIR TOKYO_R30_LONG TOKYO_R30_SHORT TOKYO_LAND CMA_LAT CMA_LON CMA_CAT CMA_WIND CMA_PRES HKO_LAT HKO_LON HKO_CAT HKO_WIND HKO_PRES NEWDELHI_LAT NEWDELHI_LON NEWDELHI_GRADE NEWDELHI_WIND NEWDELHI_PRES NEWDELHI_CI NEWDELHI_DP NEWDELHI_POCI REUNION_LAT REUNION_LON REUNION_TYPE REUNION_WIND REUNION_PRES REUNION_TNUM REUNION_CI REUNION_RMW REUNION_R34_NE REUNION_R34_SE REUNION_R34_SW REUNION_R34_NW REUNION_R50_NE REUNION_R50_SE REUNION_R50_SW REUNION_R50_NW REUNION_R64_NE REUNION_R64_SE REUNION_R64_SW REUNION_R64_NW BOM_LAT BOM_LON BOM_TYPE BOM_WIND BOM_PRES BOM_TNUM BOM_CI BOM_RMW BOM_R34_NE BOM_R34_SE BOM_R34_SW BOM_R34_NW BOM_R50_NE BOM_R50_SE BOM_R50_SW BOM_R50_NW BOM_R64_NE BOM_R64_SE BOM_R64_SW BOM_R64_NW BOM_ROCI BOM_POCI BOM_EYE BOM_POS_METHOD BOM_PRES_METHOD NADI_LAT NADI_LON NADI_CAT NADI_WIND NADI_PRES WELLINGTON_LAT WELLINGTON_LON WELLINGTON_WIND WELLINGTON_PRES DS824_LAT DS824_LON DS824_STAGE DS824_WIND DS824_PRES TD9636_LAT TD9636_LON TD9636_STAGE TD9636_WIND TD9636_PRES TD9635_LAT TD9635_LON TD9635_WIND TD9635_PRES TD9635_ROCI NEUMANN_LAT NEUMANN_LON NEUMANN_CLASS NEUMANN_WIND NEUMANN_PRES MLC_LAT MLC_LON MLC_CLASS MLC_WIND MLC_PRES USA_GUST BOM_GUST BOM_GUST_PER REUNION_GUST REUNION_GUST_PER USA_SEAHGT USA_SEARAD_NE USA_SEARAD_SE USA_SEARAD_SW USA_SEARAD_NW STORM_SPEED STORM_DIR
1926101S12063 1926 17 SI MM NOT_NAMED 1926-04-10 18:00:00 NR -12.2000 63.2000 main 1061 1040 __________O___ -1 -12.2000 63.2000 7 4 255
1926101S12063 1926 17 SI MM NOT_NAMED 1926-04-10 21:00:00 NR -12.2547 62.9984 main 1040 1028 __________P___ -1 -12.2547 62.9984 7 4 254
1926101S12063 1926 17 SI MM NOT_NAMED 1926-04-11 00:00:00 NR -12.3175 62.7875 main 1028 1007 __________P___ -1 -12.3175 62.7875 7 5 252
1926101S12063 1926 17 SI MM NOT_NAMED 1926-04-11 03:00:00 NR -12.3966 62.5578 main 1007 981 __________P___ -1 -12.3966 62.5578 7 5 249
1926101S12063 1926 17 SI MM NOT_NAMED 1926-04-11 06:00:00 NR -12.5000 62.3000 main 981 956 __________O___ -1 -12.5000 62.3000 7 6 246
1926101S12063 1926 17 SI MM NOT_NAMED 1926-04-11 09:00:00 NR -12.6341 62.0077 main 956 921 __________P___ -1 -12.6341 62.0077 7 7 244
1926101S12063 1926 17 SI MM NOT_NAMED 1926-04-11 12:00:00 NR -12.7975 61.6874 main 921 886 __________P___ -1 -12.7975 61.6874 7 7 241
1926101S12063 1926 17 SI MM NOT_NAMED 1926-04-11 15:00:00 NR -12.9872 61.3483 main 882 848 __________P___ -1 -12.9872 61.3483 7 8 239
1926101S12063 1926 17 SI MM NOT_NAMED 1926-04-11 18:00:00 NR -13.2000 61.0000 main 848 814 __________O___ -1 -13.2000 61.0000 7 8 238
1926101S12063 1926 17 SI MM NOT_NAMED 1926-04-11 21:00:00 NR -13.4203 60.6450 main 810 778 __________P___ -1 -13.4203 60.6450 7 8 236
1926101S12063 1926 17 SI MM NOT_NAMED 1926-04-12 00:00:00 NR -13.6626 60.2850 main 767 735 __________P___ -1 -13.6626 60.2850 7 9 234
1926101S12063 1926 17 SI MM NOT_NAMED 1926-04-12 03:00:00 NR -13.9235 59.9324 main 732 690 __________P___ -1 -13.9235 59.9324 7 9 231
1926101S12063 1926 17 SI MM NOT_NAMED 1926-04-12 06:00:00 NR -14.2000 59.6000 main 690 660 __________O___ -1 -14.2000 59.6000 7 8 230
1926101S12063 1926 17 SI MM NOT_NAMED 1926-04-12 09:00:00 NR -14.4531 59.2748 main 649 619 __________P___ -1 -14.4531 59.2748 7 8 229
1926101S12063 1926 17 SI MM NOT_NAMED 1926-04-12 12:00:00 NR -14.7250 58.9749 main 619 580 __________P___ -1 -14.7250 58.9749 7 8 223
1926101S12063 1926 17 SI MM NOT_NAMED 1926-04-12 15:00:00 NR -15.0344 58.7124 main 580 532 __________P___ -1 -15.0344 58.7124 7 8 214
1926101S12063 1926 17 SI MM NOT_NAMED 1926-04-12 18:00:00 NR -15.4000 58.5000 main 532 485 __________O___ -1 -15.4000 58.5000 7 9 204
1926101S12063 1926 17 SI MM NOT_NAMED 1926-04-12 21:00:00 NR -15.8708 58.3294 main 474 417 __________P___ -1 -15.8708 58.3294 7 10 196
1926101S12063 1926 17 SI MM NOT_NAMED 1926-04-13 00:00:00 NR -16.3923 58.2101 main 417 360 __________P___ -1 -16.3923 58.2101 7 11 190
1926101S12063 1926 17 SI MM NOT_NAMED 1926-04-13 03:00:00 NR -16.9177 58.1357 main 360 304 __________P___ -1 -16.9177 58.1357 7 10 186
1926101S12063 1926 17 SI MM NOT_NAMED 1926-04-13 06:00:00 NR -17.4000 58.1000 main 304 260 __________O___ -1 -17.4000 58.1000 7 9 184
1926101S12063 1926 17 SI MM NOT_NAMED 1926-04-13 09:00:00 NR -17.7793 58.0766 main 260 227 __________P___ -1 -17.7793 58.0766 7 7 181
1926101S12063 1926 17 SI MM NOT_NAMED 1926-04-13 12:00:00 NR -18.1099 58.0898 main 227 194 __________P___ -1 -18.1099 58.0898 7 6 174
1926101S12063 1926 17 SI MM NOT_NAMED 1926-04-13 15:00:00 NR -18.4105 58.1330 main 194 165 __________P___ -1 -18.4105 58.1330 7 6 170
1926101S12063 1926 17 SI MM NOT_NAMED 1926-04-13 18:00:00 NR -18.7000 58.2000 main 165 138 __________O___ -1 -18.7000 58.2000 7 6 168
1926101S12063 1926 17 SI MM NOT_NAMED 1926-04-13 21:00:00 NR -19.0031 58.2664 main 138 109 __________P___ -1 -19.0031 58.2664 7 6 166
1926101S12063 1926 17 SI MM NOT_NAMED 1926-04-14 00:00:00 NR -19.2999 58.3552 main 115 99 __________P___ -1 -19.2999 58.3552 7 6 162
1926101S12063 1926 17 SI MM NOT_NAMED 1926-04-14 03:00:00 NR -19.5968 58.4665 main 100 90 __________P___ -1 -19.5968 58.4665 7 6 159
1926101S12063 1926 17 SI MM NOT_NAMED 1926-04-14 06:00:00 NR -19.9000 58.6000 main 94 89 __________O___ -1 -19.9000 58.6000 7 7 157
1926101S12063 1926 17 SI MM NOT_NAMED 1926-04-14 09:00:00 NR -20.2260 58.7533 main 104 104 __________P___ -1 -20.2260 58.7533 7 7 155
1926101S12063 1926 17 SI MM NOT_NAMED 1926-04-14 12:00:00 NR -20.5575 58.9274 main 119 119 __________P___ -1 -20.5575 58.9274 7 7 153
1926101S12063 1926 17 SI MM NOT_NAMED 1926-04-14 15:00:00 NR -20.8853 59.1128 main 151 151 __________P___ -1 -20.8853 59.1128 7 7 152
1926101S12063 1926 17 SI MM NOT_NAMED 1926-04-14 18:00:00 NR -21.2000 59.3000 main 183 183 __________O___ -1 -21.2000 59.3000 7 7 152
1926101S12063 1926 17 SI MM NOT_NAMED 1926-04-14 21:00:00 NR -21.4891 59.4512 main 217 217 __________P___ -1 -21.4891 59.4512 7 6 153
1926101S12063 1926 17 SI MM NOT_NAMED 1926-04-15 00:00:00 NR -21.7645 59.6059 main 244 244 __________P___ -1 -21.7645 59.6059 7 6 151
1926101S12063 1926 17 SI MM NOT_NAMED 1926-04-15 03:00:00 NR -22.0328 59.7826 main 274 274 __________P___ -1 -22.0328 59.7826 7 7 146
1926101S12063 1926 17 SI MM NOT_NAMED 1926-04-15 06:00:00 NR -22.3000 60.0000 main 311 311 __________O___ -1 -22.3000 60.0000 7 7 140
1926101S12063 1926 17 SI MM NOT_NAMED 1926-04-15 09:00:00 NR -22.5752 60.2818 main 356 356 __________P___ -1 -22.5752 60.2818 7 8 135
1926101S12063 1926 17 SI MM NOT_NAMED 1926-04-15 12:00:00 NR -22.8502 60.6050 main 402 402 __________P___ -1 -22.8502 60.6050 7 8 132
1926101S12063 1926 17 SI MM NOT_NAMED 1926-04-15 15:00:00 NR -23.1251 60.9507 main 447 447 __________P___ -1 -23.1251 60.9507 7 8 131
1926101S12063 1926 17 SI MM NOT_NAMED 1926-04-15 18:00:00 NR -23.4000 61.3000 main 492 492 __________O___ -1 -23.4000 61.3000 7 8 131
1926101S12063 1926 17 SI MM NOT_NAMED 1926-04-15 21:00:00 NR -23.6751 61.6377 main 537 537 __________P___ -1 -23.6751 61.6377 7 8 132
1926101S12063 1926 17 SI MM NOT_NAMED 1926-04-16 00:00:00 NR -23.9503 61.9642 main 590 590 __________P___ -1 -23.9503 61.9641 7 8 133
1926101S12063 1926 17 SI MM NOT_NAMED 1926-04-16 03:00:00 NR -24.2253 62.2835 main 628 628 __________P___ -1 -24.2253 62.2835 7 8 133
1926101S12063 1926 17 SI MM NOT_NAMED 1926-04-16 06:00:00 NR -24.5000 62.6000 main 673 __________O___ -1 -24.5000 62.6000 7 8 134

IBTrACS Databaseについて

本データベースは、米国NOAAが公開する1842年以降の世界の熱帯低気圧のベストトラックデータアーカイブInternational Best Track Archive for Climate Stewardship (IBTrACS)を、ウェブで閲覧しやすい形式に変換したものです。

最終更新日:2021-11-26